Time;durP1;ratioP1;P1;durP2;ratioP2;P2;SDS_P1;SDS_P2;PMS_P1;PMS_P2;Temp;Humidity;BMP_temperature;BMP_pressure;BME280_temperature;BME280_humidity;BME280_pressure;Samples;Min_cycle;Max_cycle;Signal;HPM_P1;HPM_P2
2021/09/15 00:01:09;;;;;;;13.10;7.75;;;;;;;10.41;93.06;99701.22;1656559;86;21033;-68
2021/09/15 00:03:37;;;;;;;17.23;8.40;;;;;;;10.41;93.32;99705.34;1656666;86;21017;-66
2021/09/15 00:06:05;;;;;;;16.40;8.38;;;;;;;10.38;93.33;99701.88;1652899;85;21006;-66
2021/09/15 00:08:33;;;;;;;17.77;8.05;;;;;;;10.36;93.40;99704.92;1653925;85;21174;-66
2021/09/15 00:11:01;;;;;;;15.70;7.40;;;;;;;10.36;93.50;99698.63;1638302;86;21556;-66
2021/09/15 00:13:29;;;;;;;14.15;8.00;;;;;;;10.36;93.64;99701.38;1650900;85;21033;-66
2021/09/15 00:15:58;;;;;;;16.90;7.90;;;;;;;10.37;93.88;99708.48;1653904;85;21595;-66
2021/09/15 00:18:24;;;;;;;11.15;6.92;;;;;;;10.37;93.86;99709.30;1652222;85;21037;-66
2021/09/15 00:20:53;;;;;;;16.10;7.45;;;;;;;10.36;93.69;99705.48;1657535;85;20878;-66
2021/09/15 00:23:19;;;;;;;16.48;7.17;;;;;;;10.35;93.52;99713.47;1656169;85;21155;-68
2021/09/15 00:25:46;;;;;;;13.85;6.47;;;;;;;10.33;93.54;99711.03;1656128;86;21044;-66
2021/09/15 00:28:13;;;;;;;14.45;6.42;;;;;;;10.30;93.33;99713.02;1646613;86;21005;-66
2021/09/15 00:30:40;;;;;;;15.55;7.28;;;;;;;10.25;93.10;99721.38;1656770;86;21524;-66
2021/09/15 00:33:07;;;;;;;13.38;6.35;;;;;;;10.20;93.14;99716.81;1645838;85;20980;-67
2021/09/15 00:35:33;;;;;;;10.40;5.92;;;;;;;10.16;93.18;99717.14;1654104;85;21144;-66
2021/09/15 00:38:00;;;;;;;14.13;6.40;;;;;;;10.12;93.25;99717.51;1646237;85;20984;-67
2021/09/15 00:40:27;;;;;;;14.13;6.97;;;;;;;10.06;93.19;99719.30;1654567;85;21628;-66
2021/09/15 00:42:54;;;;;;;17.07;6.50;;;;;;;9.99;93.43;99710.68;1656849;85;20952;-67
2021/09/15 00:45:22;;;;;;;19.32;7.60;;;;;;;9.96;93.67;99712.66;1654603;85;20972;-67
2021/09/15 00:47:50;;;;;;;16.67;6.75;;;;;;;9.94;94.00;99717.09;1655650;85;21148;-66
2021/09/15 00:50:19;;;;;;;18.25;7.50;;;;;;;9.92;94.15;99716.02;1623173;87;21158;-66
2021/09/15 00:52:48;;;;;;;17.12;7.45;;;;;;;9.86;94.20;99715.88;1653275;85;20950;-66
2021/09/15 00:55:16;;;;;;;12.37;6.55;;;;;;;9.82;94.18;99716.23;1646086;85;20966;-65
2021/09/15 00:57:44;;;;;;;12.35;6.75;;;;;;;9.81;94.18;99719.31;1636196;86;21107;-65
2021/09/15 01:00:12;;;;;;;12.80;7.37;;;;;;;9.78;94.09;99724.03;1652399;85;21622;-65
2021/09/15 01:02:41;;;;;;;14.73;8.28;;;;;;;9.75;93.93;99718.61;1649152;85;20969;-65
2021/09/15 01:05:11;;;;;;;15.98;8.23;;;;;;;9.73;93.90;99722.77;1657320;84;20960;-66
2021/09/15 01:07:39;;;;;;;18.23;8.38;;;;;;;9.69;93.86;99728.05;1655404;85;20921;-65
2021/09/15 01:10:08;;;;;;;17.48;8.73;;;;;;;9.67;93.73;99736.33;1642288;86;21024;-66
2021/09/15 01:12:39;;;;;;;17.77;8.98;;;;;;;9.63;93.86;99734.75;1651473;85;21865;-66
2021/09/15 01:15:09;;;;;;;14.58;9.13;;;;;;;9.60;93.83;99733.98;1606042;86;21566;-66
2021/09/15 01:17:49;;;;;;;16.32;9.98;;;;;;;9.58;94.31;99739.77;1654397;85;20948;-66
2021/09/15 01:20:25;;;;;;;16.70;10.48;;;;;;;9.55;95.22;99738.20;1624752;85;21546;-66
2021/09/15 01:22:57;;;;;;;23.70;10.00;;;;;;;9.52;95.31;99731.40;1635053;85;20971;-66
2021/09/15 01:25:44;;;;;;;21.73;10.18;;;;;;;9.51;95.04;99736.63;1654131;86;21183;-66
2021/09/15 01:28:16;;;;;;;16.02;9.53;;;;;;;9.49;95.20;99733.94;1638980;85;20976;-66
2021/09/15 01:30:46;;;;;;;18.30;10.70;;;;;;;9.49;95.20;99733.38;1654846;85;21718;-66
2021/09/15 01:33:14;;;;;;;18.60;10.20;;;;;;;9.48;95.01;99729.02;1657196;85;21076;-66
2021/09/15 01:35:42;;;;;;;18.57;10.72;;;;;;;9.48;94.92;99728.20;1623723;87;21121;-66
2021/09/15 01:38:11;;;;;;;20.02;9.90;;;;;;;9.50;94.98;99731.45;1624682;87;21814;-66
2021/09/15 01:40:38;;;;;;;17.85;9.95;;;;;;;9.50;94.88;99728.15;1649618;85;20914;-66
2021/09/15 01:43:05;;;;;;;17.77;9.80;;;;;;;9.49;94.86;99733.94;1653772;85;21001;-66
2021/09/15 01:45:33;;;;;;;17.73;9.53;;;;;;;9.48;94.84;99737.23;1653848;85;20960;-66
2021/09/15 01:48:01;;;;;;;15.18;9.48;;;;;;;9.47;94.88;99732.05;1651267;85;21453;-66
2021/09/15 01:50:29;;;;;;;22.35;10.10;;;;;;;9.45;94.81;99735.09;1652234;86;21180;-66
2021/09/15 01:52:57;;;;;;;15.45;10.05;;;;;;;9.45;95.05;99733.73;1649062;86;21528;-66
2021/09/15 01:55:27;;;;;;;16.73;10.15;;;;;;;9.45;95.11;99729.62;1623433;86;21560;-66
2021/09/15 01:57:58;;;;;;;21.87;10.20;;;;;;;9.46;95.34;99732.61;1621929;87;20995;-66
2021/09/15 02:00:42;;;;;;;21.23;10.50;;;;;;;9.47;95.45;99738.34;1635608;86;21096;-66
2021/09/15 02:03:12;;;;;;;18.73;10.95;;;;;;;9.47;95.43;99741.09;1643520;86;21061;-66
2021/09/15 02:05:41;;;;;;;22.27;11.60;;;;;;;9.46;95.25;99744.94;1659287;85;21484;-66
2021/09/15 02:08:09;;;;;;;19.05;9.50;;;;;;;9.46;95.55;99742.77;1650047;84;21015;-65
2021/09/15 02:10:38;;;;;;;19.00;9.83;;;;;;;9.46;95.74;99735.91;1640240;85;20996;-66
2021/09/15 02:13:08;;;;;;;21.70;10.05;;;;;;;9.43;95.64;99736.52;1652579;86;20992;-66
2021/09/15 02:15:36;;;;;;;20.90;10.53;;;;;;;9.40;95.43;99735.20;1640757;86;21635;-66
2021/09/15 02:18:03;;;;;;;21.05;10.68;;;;;;;9.37;95.17;99740.47;1653283;85;21063;-66
2021/09/15 02:20:35;;;;;;;21.57;10.13;;;;;;;9.34;94.94;99746.55;1656050;85;21034;-66
2021/09/15 02:23:04;;;;;;;23.07;10.23;;;;;;;9.29;94.75;99741.98;1600196;88;21022;-66
2021/09/15 02:25:48;;;;;;;24.80;10.32;;;;;;;9.24;94.51;99751.69;1656760;85;20966;-66
2021/09/15 02:28:22;;;;;;;14.50;9.25;;;;;;;9.18;94.50;99753.70;1637593;86;21588;-66
2021/09/15 02:30:54;;;;;;;19.67;9.83;;;;;;;9.13;94.68;99750.25;1641423;85;21116;-67
2021/09/15 02:33:39;;;;;;;16.85;9.55;;;;;;;9.10;94.90;99752.22;1657660;85;21603;-66
2021/09/15 02:36:07;;;;;;;18.73;9.08;;;;;;;9.07;94.88;99752.27;1654033;85;21048;-66
2021/09/15 02:38:55;;;;;;;17.12;9.18;;;;;;;9.02;94.79;99756.45;1654528;85;20926;-66
2021/09/15 02:41:25;;;;;;;15.30;9.78;;;;;;;8.98;94.69;99752.69;1652929;85;21565;-66
2021/09/15 02:43:54;;;;;;;18.25;8.65;;;;;;;8.92;94.59;99753.89;1652199;85;21130;-66
2021/09/15 02:46:39;;;;;;;21.57;9.28;;;;;;;8.89;94.64;99753.12;1652390;85;21432;-66
2021/09/15 02:49:15;;;;;;;15.80;8.40;;;;;;;8.86;94.89;99751.79;1653166;85;21532;-66
2021/09/15 02:51:44;;;;;;;14.18;8.43;;;;;;;8.84;95.08;99755.94;1647594;86;21529;-66
2021/09/15 02:54:13;;;;;;;20.50;9.28;;;;;;;8.80;94.98;99750.80;1624040;87;21803;-66
2021/09/15 02:56:47;;;;;;;14.98;8.03;;;;;;;8.77;94.86;99748.66;1622447;87;20886;-67
2021/09/15 02:59:21;;;;;;;25.00;9.60;;;;;;;8.73;94.74;99757.22;1648475;85;21672;-66
2021/09/15 03:02:05;;;;;;;10.85;7.58;;;;;;;8.68;94.71;99754.00;1654183;86;20973;-67
2021/09/15 03:04:37;;;;;;;16.75;8.78;;;;;;;8.66;94.66;99756.81;1652234;85;20997;-66
2021/09/15 03:07:14;;;;;;;18.52;8.18;;;;;;;8.61;94.81;99752.23;1652888;85;21175;-67
2021/09/15 03:09:43;;;;;;;20.37;9.08;;;;;;;8.57;94.98;99749.27;1654726;85;20968;-66
2021/09/15 03:12:10;;;;;;;14.95;7.70;;;;;;;8.54;94.94;99752.60;1649085;85;20973;-66
2021/09/15 03:14:39;;;;;;;16.00;7.62;;;;;;;8.51;94.95;99753.75;1634077;85;21076;-65
2021/09/15 03:17:06;;;;;;;16.45;7.78;;;;;;;8.46;95.29;99749.72;1652892;85;21073;-67
2021/09/15 03:19:36;;;;;;;17.82;7.92;;;;;;;8.44;95.42;99756.05;1649908;85;21231;-66
2021/09/15 03:22:03;;;;;;;51.88;9.70;;;;;;;8.39;95.26;99752.83;1646585;85;20874;-66
2021/09/15 03:24:29;;;;;;;58.42;9.38;;;;;;;8.36;95.22;99756.16;1652370;85;21490;-67
2021/09/15 03:26:58;;;;;;;59.48;10.72;;;;;;;8.29;95.28;99757.05;1654593;85;21063;-66
2021/09/15 03:29:25;;;;;;;71.62;11.03;;;;;;;8.24;95.15;99760.66;1650130;85;20974;-67
2021/09/15 03:31:52;;;;;;;82.80;12.18;;;;;;;8.21;95.06;99762.63;1647371;85;21164;-66
2021/09/15 03:34:19;;;;;;;64.60;10.38;;;;;;;8.19;95.21;99764.84;1652669;85;20955;-67
2021/09/15 03:36:48;;;;;;;47.35;10.10;;;;;;;8.16;95.25;99767.34;1650312;85;21452;-67
2021/09/15 03:39:16;;;;;;;41.48;10.15;;;;;;;8.13;95.13;99766.02;1657987;85;21023;-68
2021/09/15 03:41:43;;;;;;;30.43;8.68;;;;;;;8.11;95.15;99768.78;1654840;85;21038;-65
2021/09/15 03:44:09;;;;;;;33.00;9.73;;;;;;;8.07;95.06;99769.14;1656040;85;21189;-66
2021/09/15 03:46:38;;;;;;;26.07;8.95;;;;;;;8.06;95.16;99775.16;1653093;84;21590;-67
2021/09/15 03:49:06;;;;;;;25.23;8.33;;;;;;;8.05;95.24;99774.09;1650978;85;21060;-67
2021/09/15 03:51:33;;;;;;;23.80;8.20;;;;;;;8.04;95.52;99771.09;1654292;85;21700;-68
2021/09/15 03:54:00;;;;;;;19.85;8.28;;;;;;;8.04;95.35;99772.45;1656536;86;20901;-68
2021/09/15 03:56:28;;;;;;;16.50;7.03;;;;;;;8.03;95.39;99774.38;1653672;85;21177;-68
2021/09/15 03:58:56;;;;;;;17.62;7.10;;;;;;;8.02;95.54;99775.48;1652022;85;21449;-67
2021/09/15 04:01:23;;;;;;;17.80;7.28;;;;;;;8.03;95.75;99781.77;1650059;86;20968;-68
2021/09/15 04:03:52;;;;;;;15.18;7.50;;;;;;;8.03;95.71;99783.95;1650021;85;20972;-69
2021/09/15 04:06:20;;;;;;;19.87;7.90;;;;;;;8.02;95.80;99783.69;1654957;85;20952;-67
2021/09/15 04:08:48;;;;;;;12.93;6.78;;;;;;;8.05;96.10;99786.39;1646258;85;21182;-66
2021/09/15 04:11:15;;;;;;;17.32;7.37;;;;;;;8.08;96.47;99787.98;1654287;84;21084;-68
2021/09/15 04:13:44;;;;;;;17.52;6.90;;;;;;;8.14;96.60;99795.54;1653875;85;21571;-67
2021/09/15 04:16:13;;;;;;;16.07;8.45;;;;;;;8.19;97.01;99792.73;1653479;85;21014;-67
2021/09/15 04:18:42;;;;;;;16.37;7.83;;;;;;;8.25;97.52;99799.22;1652007;85;20864;-66
2021/09/15 04:21:09;;;;;;;13.40;7.75;;;;;;;8.35;98.16;99799.66;1654960;85;21134;-68
2021/09/15 04:31:56;;;;;;;19.32;7.95;;;;;;;8.84;99.88;99802.48;1653866;85;20960;-67
2021/09/15 04:34:23;;;;;;;17.25;8.08;;;;;;;9.04;100.00;99809.00;1646482;86;23268;-66
2021/09/15 04:37:01;;;;;;;15.90;7.25;;;;;;;9.16;100.00;99809.34;1647168;85;21462;-66
2021/09/15 04:39:30;;;;;;;16.90;8.00;;;;;;;9.28;100.00;99806.10;1646832;86;21473;-66
2021/09/15 04:41:57;;;;;;;26.85;8.30;;;;;;;9.39;100.00;99808.92;1651615;85;21477;-67
2021/09/15 04:44:24;;;;;;;24.52;8.30;;;;;;;9.52;100.00;99810.87;1657713;85;21508;-66
2021/09/15 04:46:53;;;;;;;22.98;10.00;;;;;;;9.64;100.00;99807.64;1650986;85;21176;-66
2021/09/15 04:49:20;;;;;;;17.82;9.28;;;;;;;9.76;100.00;99809.33;1650953;85;20973;-67
2021/09/15 04:51:48;;;;;;;21.02;9.00;;;;;;;9.93;100.00;99809.52;1680277;82;21226;-66
2021/09/15 04:54:15;;;;;;;17.87;9.08;;;;;;;10.08;100.00;99808.95;1656505;85;21005;-68
2021/09/15 04:56:43;;;;;;;20.90;9.45;;;;;;;10.21;100.00;99814.45;1652815;85;21076;-66
2021/09/15 04:59:11;;;;;;;21.90;9.85;;;;;;;10.37;100.00;99816.31;1655712;85;21184;-72
2021/09/15 05:01:38;;;;;;;26.05;9.98;;;;;;;10.52;100.00;99815.95;1654726;86;20975;-67
2021/09/15 05:04:07;;;;;;;21.50;10.32;;;;;;;10.67;100.00;99818.92;1651702;84;21016;-66
2021/09/15 05:06:34;;;;;;;28.12;10.38;;;;;;;10.82;100.00;99815.82;1650556;85;20941;-66
2021/09/15 05:09:01;;;;;;;22.02;10.38;;;;;;;10.97;100.00;99811.90;1654827;85;21095;-66
2021/09/15 05:11:32;;;;;;;27.20;10.85;;;;;;;11.11;100.00;99818.12;1655725;84;20947;-67
2021/09/15 05:14:00;;;;;;;29.37;11.10;;;;;;;11.28;100.00;99819.36;1656412;84;21614;-67
2021/09/15 05:16:30;;;;;;;34.70;11.08;;;;;;;11.44;100.00;99819.22;1657785;85;21062;-67
2021/09/15 05:18:59;;;;;;;18.73;10.60;;;;;;;11.61;100.00;99823.41;1657819;85;21456;-67
2021/09/15 05:21:27;;;;;;;20.20;10.08;;;;;;;11.79;100.00;99825.72;1656113;85;21397;-67
2021/09/15 05:23:54;;;;;;;22.62;9.65;;;;;;;11.94;100.00;99827.23;1656990;85;22007;-67
2021/09/15 05:26:24;;;;;;;23.60;9.98;;;;;;;12.08;100.00;99828.75;1653493;85;21001;-67
2021/09/15 05:28:53;;;;;;;27.40;10.25;;;;;;;12.22;100.00;99836.30;1649443;85;20989;-66
2021/09/15 05:31:20;;;;;;;16.37;7.42;;;;;;;12.37;100.00;99841.92;1656087;85;21005;-66
2021/09/15 05:33:48;;;;;;;22.67;7.83;;;;;;;12.50;99.20;99842.36;1655989;86;20953;-66
2021/09/15 05:36:17;;;;;;;10.98;5.50;;;;;;;12.63;97.28;99847.48;1626166;87;23216;-66
2021/09/15 05:38:46;;;;;;;10.00;6.53;;;;;;;12.74;93.49;99849.33;1656695;85;20936;-68
2021/09/15 05:41:14;;;;;;;13.18;5.53;;;;;;;12.84;92.13;99843.51;1644087;85;20977;-67
2021/09/15 05:43:42;;;;;;;16.15;6.37;;;;;;;12.94;90.09;99848.70;1660911;85;21041;-67
2021/09/15 05:46:11;;;;;;;13.88;5.30;;;;;;;13.04;87.86;99852.52;1653374;85;21006;-66
2021/09/15 05:48:40;;;;;;;17.37;6.40;;;;;;;13.12;86.92;99850.32;1650743;85;21019;-67
2021/09/15 05:51:07;;;;;;;8.55;5.60;;;;;;;13.20;86.10;99848.73;1653822;84;21574;-65
2021/09/15 05:53:35;;;;;;;12.05;5.80;;;;;;;13.30;85.75;99852.50;1637850;85;21655;-66
2021/09/15 05:56:04;;;;;;;12.43;5.60;;;;;;;13.41;85.59;99849.64;1652810;84;21014;-65
2021/09/15 05:58:31;;;;;;;17.48;5.83;;;;;;;13.50;84.48;99851.82;1654280;85;21016;-66
2021/09/15 06:00:57;;;;;;;15.05;5.33;;;;;;;13.58;81.21;99852.12;1644430;85;21197;-66
2021/09/15 06:03:26;;;;;;;18.48;5.40;;;;;;;13.66;81.87;99853.49;1609601;87;20969;-66
2021/09/15 06:05:55;;;;;;;20.95;6.58;;;;;;;13.78;78.43;99857.76;1608032;87;21129;-67
2021/09/15 06:08:23;;;;;;;11.80;4.87;;;;;;;13.91;79.33;99855.91;1599767;87;21033;-67
2021/09/15 06:10:50;;;;;;;12.47;4.50;;;;;;;14.06;78.94;99860.07;1588146;89;21051;-67
2021/09/15 06:13:19;;;;;;;7.55;3.90;;;;;;;14.17;76.23;99855.23;1645221;84;21063;-67
2021/09/15 06:15:47;;;;;;;15.45;4.22;;;;;;;14.30;75.68;99853.95;1655357;85;20968;-68
2021/09/15 06:18:16;;;;;;;5.22;3.27;;;;;;;14.42;71.46;99858.23;1655425;83;21101;-68
2021/09/15 06:20:53;;;;;;;8.75;3.70;;;;;;;14.50;70.67;99858.72;1623319;86;21552;-68
2021/09/15 06:23:30;;;;;;;6.97;3.55;;;;;;;14.61;69.37;99859.95;1624219;87;21566;-67
2021/09/15 06:26:00;;;;;;;6.90;3.60;;;;;;;14.70;66.66;99863.47;1629751;86;21187;-67
2021/09/15 06:28:29;;;;;;;14.63;4.10;;;;;;;14.79;67.31;99863.41;1642262;84;21112;-67
2021/09/15 06:30:58;;;;;;;8.10;3.83;;;;;;;14.92;67.23;99860.95;1650596;85;21116;-67
2021/09/15 06:33:25;;;;;;;6.47;3.00;;;;;;;15.04;64.75;99862.38;1657715;85;21594;-68
2021/09/15 06:35:52;;;;;;;8.55;3.15;;;;;;;15.17;62.04;99864.06;1652388;85;21019;-67
2021/09/15 06:38:43;;;;;;;9.40;3.12;;;;;;;15.28;62.37;99865.84;1652352;85;21101;-68
2021/09/15 06:41:10;;;;;;;7.58;2.62;;;;;;;15.43;62.78;99871.32;1689043;84;21631;-68
2021/09/15 06:43:38;;;;;;;7.53;2.87;;;;;;;15.60;61.26;99872.53;1682720;84;21014;-68
2021/09/15 06:46:05;;;;;;;8.08;2.98;;;;;;;15.71;59.82;99880.64;1690395;84;21045;-68
2021/09/15 06:48:32;;;;;;;10.48;4.05;;;;;;;15.80;58.65;99871.67;1686795;84;21513;-67
2021/09/15 06:50:59;;;;;;;13.18;4.47;;;;;;;15.88;60.52;99871.92;1687230;84;21216;-68
2021/09/15 06:53:27;;;;;;;44.80;9.95;;;;;;;16.00;61.22;99876.09;1677573;84;20941;-67
2021/09/15 06:55:55;;;;;;;14.00;3.80;;;;;;;16.09;59.91;99870.69;1686189;83;21036;-68
2021/09/15 06:58:22;;;;;;;6.83;2.90;;;;;;;16.22;60.32;99871.48;1683615;85;21504;-68
2021/09/15 07:00:55;;;;;;;6.67;2.77;;;;;;;16.37;60.32;99876.34;1682339;84;21013;-69
2021/09/15 07:03:19;;;;;;;7.40;2.77;;;;;;;16.52;60.11;99876.22;1687058;84;21157;-67
2021/09/15 07:05:46;;;;;;;8.43;2.10;;;;;;;16.67;57.71;99877.52;1670191;84;21030;-69
2021/09/15 07:08:14;;;;;;;4.08;2.15;;;;;;;16.74;57.08;99870.80;1660410;84;21079;-68
2021/09/15 07:10:41;;;;;;;6.35;2.50;;;;;;;16.82;57.02;99876.19;1653349;85;21082;-67
2021/09/15 07:13:10;;;;;;;6.83;2.75;;;;;;;16.86;55.59;99876.30;1672729;83;20963;-67
2021/09/15 07:15:38;;;;;;;5.33;2.37;;;;;;;17.03;55.77;99871.87;1657535;85;21166;-68
2021/09/15 07:18:06;;;;;;;7.67;2.40;;;;;;;17.39;53.79;99870.11;1629802;86;21022;-68
2021/09/15 07:20:35;;;;;;;7.00;2.60;;;;;;;17.85;54.34;99869.22;1639831;86;21509;-67
2021/09/15 07:23:03;;;;;;;5.10;2.77;;;;;;;18.31;50.23;99865.63;1647986;86;20968;-69
2021/09/15 07:25:32;;;;;;;12.37;3.50;;;;;;;18.67;49.25;99867.29;1644506;86;21112;-67
2021/09/15 07:27:59;;;;;;;4.65;2.67;;;;;;;18.97;47.80;99860.62;1648738;86;21621;-69
2021/09/15 07:30:26;;;;;;;6.50;2.42;;;;;;;19.22;47.62;99858.92;1649407;84;21168;-68
2021/09/15 07:32:52;;;;;;;5.65;2.30;;;;;;;19.47;48.08;99861.63;1639161;86;20926;-67
2021/09/15 07:35:19;;;;;;;42.88;4.55;;;;;;;19.76;46.60;99861.01;1650178;86;21515;-68
2021/09/15 07:37:47;;;;;;;8.18;3.45;;;;;;;19.97;46.21;99859.79;1644876;86;21117;-69
2021/09/15 07:40:14;;;;;;;8.08;3.65;;;;;;;20.10;45.40;99863.41;1656149;86;21103;-68
2021/09/15 07:42:41;;;;;;;5.78;2.65;;;;;;;20.21;45.61;99862.80;1636030;86;20988;-68
2021/09/15 07:45:12;;;;;;;7.65;3.40;;;;;;;20.37;45.74;99864.23;1586088;89;21011;-69
2021/09/15 07:47:41;;;;;;;11.00;2.87;;;;;;;20.71;44.64;99864.40;1641481;86;20976;-67
2021/09/15 07:50:09;;;;;;;7.05;2.92;;;;;;;21.03;45.22;99870.41;1644290;86;21028;-67
2021/09/15 07:52:36;;;;;;;14.33;4.03;;;;;;;21.22;44.79;99859.72;1642693;86;21149;-67
2021/09/15 07:55:06;;;;;;;23.15;6.20;;;;;;;21.49;44.04;99864.02;1609050;88;21572;-67
2021/09/15 07:57:35;;;;;;;6.22;2.58;;;;;;;21.87;42.80;99860.05;1641968;86;21050;-68
2021/09/15 08:00:02;;;;;;;6.70;2.62;;;;;;;22.29;43.05;99865.23;1637898;86;21066;-67
2021/09/15 08:02:31;;;;;;;4.72;2.52;;;;;;;22.53;40.20;99858.83;1638870;85;21042;-68
2021/09/15 08:04:58;;;;;;;7.62;2.90;;;;;;;22.57;40.42;99858.23;1635508;86;21204;-67
2021/09/15 08:07:24;;;;;;;3.85;2.30;;;;;;;22.61;39.88;99859.06;1641245;84;20947;-67
2021/09/15 08:09:51;;;;;;;5.37;2.22;;;;;;;22.55;39.23;99855.02;1648338;86;21662;-67
2021/09/15 08:12:18;;;;;;;4.12;2.20;;;;;;;22.44;39.91;99848.57;1635579;86;20940;-70
2021/09/15 08:14:45;;;;;;;7.65;3.00;;;;;;;22.36;40.27;99849.91;1637708;86;21013;-68
2021/09/15 08:17:13;;;;;;;6.30;2.70;;;;;;;22.36;41.56;99853.30;1633167;87;21039;-68
2021/09/15 08:19:41;;;;;;;5.05;2.90;;;;;;;22.63;41.54;99853.88;1650223;86;21105;-70
2021/09/15 08:22:09;;;;;;;4.62;2.80;;;;;;;23.01;40.47;99851.95;1647288;86;21123;-67
2021/09/15 08:24:36;;;;;;;8.98;3.08;;;;;;;23.30;39.55;99851.45;1615600;87;21039;-68
2021/09/15 08:27:03;;;;;;;13.58;3.83;;;;;;;23.48;39.51;99851.52;1596754;88;21047;-68
2021/09/15 08:29:29;;;;;;;8.48;4.22;;;;;;;23.64;39.60;99853.41;1599273;89;21114;-70
2021/09/15 08:31:56;;;;;;;11.20;3.90;;;;;;;23.71;38.16;99851.19;1595911;89;21020;-68
2021/09/15 08:34:23;;;;;;;9.78;4.03;;;;;;;23.55;37.82;99845.17;1644389;86;20984;-68
2021/09/15 08:36:49;;;;;;;8.50;4.47;;;;;;;23.31;38.00;99846.06;1636958;86;21496;-67
2021/09/15 08:39:17;;;;;;;16.07;3.67;;;;;;;23.16;39.46;99849.99;1640369;86;21073;-67
2021/09/15 08:41:46;;;;;;;12.25;4.05;;;;;;;23.26;38.61;99852.03;1618727;86;21240;-67
2021/09/15 08:44:13;;;;;;;10.00;4.87;;;;;;;23.33;39.76;99848.47;1579747;89;21047;-66
2021/09/15 08:46:41;;;;;;;13.28;6.33;;;;;;;23.54;39.00;99841.56;1606250;88;21052;-68
2021/09/15 08:49:08;;;;;;;8.55;4.10;;;;;;;23.62;38.66;99841.80;1577253;89;20987;-68
2021/09/15 08:51:37;;;;;;;8.30;3.55;;;;;;;23.69;39.11;99842.38;1612056;88;20991;-69
2021/09/15 08:54:05;;;;;;;7.03;2.95;;;;;;;23.80;38.66;99841.80;1591814;89;21168;-71
2021/09/15 08:56:33;;;;;;;7.75;4.08;;;;;;;23.80;38.38;99835.39;1592723;88;21015;-69
2021/09/15 08:59:00;;;;;;;24.80;3.92;;;;;;;23.63;37.95;99837.79;1588736;89;21190;-70
2021/09/15 09:01:28;;;;;;;9.28;3.33;;;;;;;23.61;38.35;99840.19;1628499;87;20987;-73
2021/09/15 09:03:56;;;;;;;5.33;3.52;;;;;;;23.80;39.06;99841.00;1624160;87;21439;-73
2021/09/15 09:06:28;;;;;;;8.38;3.92;;;;;;;24.00;37.12;99836.62;1612570;87;21152;-68
2021/09/15 09:08:58;;;;;;;10.40;3.80;;;;;;;24.14;37.16;99833.03;1648279;85;21458;-67
2021/09/15 09:11:28;;;;;;;6.15;2.80;;;;;;;24.19;38.22;99833.44;1642941;86;21137;-68
2021/09/15 09:13:59;;;;;;;5.00;2.95;;;;;;;24.35;35.14;99835.23;1649255;86;20964;-79
2021/09/15 09:16:44;;;;;;;9.08;3.20;;;;;;;24.17;36.76;99837.24;1635939;86;20963;-76
2021/09/15 09:19:18;;;;;;;7.78;2.80;;;;;;;24.20;36.28;99836.44;1641140;86;20952;-67
2021/09/15 09:21:50;;;;;;;7.95;3.60;;;;;;;24.23;37.38;99839.05;1651324;87;20916;-69
2021/09/15 09:24:26;;;;;;;5.65;3.20;;;;;;;24.26;35.92;99832.03;1636610;86;20927;-71
2021/09/15 09:27:03;;;;;;;7.33;2.70;;;;;;;24.19;36.10;99834.84;1647378;86;21020;-67
2021/09/15 09:29:36;;;;;;;9.45;3.60;;;;;;;24.19;36.06;99833.44;1639160;86;21031;-69
2021/09/15 09:32:10;;;;;;;10.43;3.35;;;;;;;24.08;36.29;99833.23;1632415;86;21163;-71
2021/09/15 09:34:49;;;;;;;9.90;2.72;;;;;;;24.10;36.46;99834.43;1627083;87;20979;-70
2021/09/15 09:37:19;;;;;;;5.45;2.58;;;;;;;24.25;36.43;99827.66;1626783;87;20987;-71
2021/09/15 09:39:56;;;;;;;7.75;2.25;;;;;;;24.34;35.61;99828.02;1651007;86;21291;-71
2021/09/15 09:42:28;;;;;;;6.05;2.30;;;;;;;24.48;37.29;99817.39;1654583;84;20943;-71
2021/09/15 09:45:10;;;;;;;6.58;3.22;;;;;;;24.72;36.78;99815.75;1641368;86;21173;-71
2021/09/15 09:47:38;;;;;;;10.00;2.72;;;;;;;25.12;36.39;99810.21;1640732;86;21045;-71
2021/09/15 09:50:19;;;;;;;4.12;2.10;;;;;;;25.47;36.31;99812.02;1605020;88;21129;-70
2021/09/15 09:53:02;;;;;;;7.87;2.42;;;;;;;25.76;34.67;99811.88;1608868;87;21199;-70
2021/09/15 09:55:35;;;;;;;5.20;2.17;;;;;;;25.91;33.55;99807.77;1625179;86;21533;-72
2021/09/15 09:58:03;;;;;;;3.62;2.25;;;;;;;25.92;34.47;99810.77;1619630;86;21613;-69
2021/09/15 10:00:30;;;;;;;6.10;2.40;;;;;;;26.11;33.32;99807.38;1598721;88;21105;-71
2021/09/15 10:03:01;;;;;;;6.70;2.20;;;;;;;26.20;33.36;99800.67;1645042;85;21042;-73
2021/09/15 10:05:28;;;;;;;6.00;2.62;;;;;;;26.25;33.79;99798.81;1645851;86;21079;-70
2021/09/15 10:07:55;;;;;;;6.30;2.37;;;;;;;26.27;32.25;99803.42;1634045;86;20960;-70
2021/09/15 10:10:22;;;;;;;6.10;1.98;;;;;;;26.18;32.91;99800.28;1630643;86;21079;-71
2021/09/15 10:12:51;;;;;;;6.75;1.95;;;;;;;26.24;31.93;99801.44;1648228;86;21014;-70
2021/09/15 10:15:18;;;;;;;3.12;1.52;;;;;;;26.28;33.74;99807.84;1651481;86;21573;-69
2021/09/15 10:17:54;;;;;;;8.15;1.80;;;;;;;26.35;31.31;99795.75;1650731;86;20999;-70
2021/09/15 10:20:30;;;;;;;4.67;1.50;;;;;;;26.38;31.80;99792.70;1612385;88;21054;-69
2021/09/15 10:22:57;;;;;;;3.02;1.45;;;;;;;26.45;32.14;99792.03;1623976;86;21150;-71
2021/09/15 10:25:38;;;;;;;7.22;2.02;;;;;;;26.43;30.46;99785.22;1590397;89;20971;-71
2021/09/15 10:28:09;;;;;;;6.72;2.05;;;;;;;26.45;31.94;99794.05;1588705;89;21092;-72
2021/09/15 10:30:47;;;;;;;5.83;2.15;;;;;;;26.48;33.26;99779.94;1589747;89;21045;-70
2021/09/15 10:33:39;;;;;;;3.67;2.20;;;;;;;26.59;31.51;99781.20;1597109;88;21080;-70
2021/09/15 10:36:20;;;;;;;5.60;2.37;;;;;;;26.54;31.32;99775.45;1606914;88;21130;-69
2021/09/15 10:39:01;;;;;;;3.47;1.75;;;;;;;26.30;32.36;99777.27;1600797;88;20995;-72
2021/09/15 10:41:37;;;;;;;3.70;1.87;;;;;;;26.29;32.71;99784.11;1637484;86;21098;-71
2021/09/15 10:44:12;;;;;;;4.80;1.80;;;;;;;26.43;32.14;99781.00;1650194;86;20983;-71
2021/09/15 10:46:39;;;;;;;4.90;2.05;;;;;;;26.53;31.32;99771.64;1644011;86;20952;-71
2021/09/15 10:49:28;;;;;;;5.35;1.98;;;;;;;26.49;30.61;99768.87;1646544;86;21408;-72
2021/09/15 10:52:13;;;;;;;3.42;1.82;;;;;;;26.29;32.12;99767.22;1649731;86;21036;-70
2021/09/15 10:54:43;;;;;;;5.30;1.50;;;;;;;26.22;31.37;99764.47;1647076;86;21023;-70
2021/09/15 10:57:20;;;;;;;3.35;1.30;;;;;;;26.17;31.80;99760.70;1649319;86;21056;-70
2021/09/15 10:59:55;;;;;;;4.12;1.67;;;;;;;26.30;32.65;99755.36;1624333;87;20868;-72
2021/09/15 11:02:32;;;;;;;7.45;1.95;;;;;;;26.44;31.13;99754.45;1637837;86;20999;-71
2021/09/15 11:05:20;;;;;;;2.75;1.50;;;;;;;26.49;30.74;99761.83;1632578;86;21012;-70
2021/09/15 11:07:57;;;;;;;4.58;2.27;;;;;;;26.38;30.82;99754.71;1632191;86;21158;-71
2021/09/15 11:10:36;;;;;;;8.40;2.00;;;;;;;26.49;31.57;99752.59;1639138;86;21439;-71
2021/09/15 11:13:14;;;;;;;5.97;1.50;;;;;;;26.52;31.98;99752.55;1652316;86;21051;-71
2021/09/15 11:15:49;;;;;;;5.35;1.65;;;;;;;26.81;30.78;99745.95;1618630;87;21071;-71
2021/09/15 11:18:24;;;;;;;4.30;2.05;;;;;;;26.98;31.66;99744.78;1610241;86;21111;-72
2021/09/15 11:20:59;;;;;;;1.32;1.10;;;;;;;27.05;30.36;99744.69;1599047;88;21038;-72
2021/09/15 11:23:28;;;;;;;3.15;1.67;;;;;;;26.93;30.88;99746.02;1638678;87;21040;-70
2021/09/15 11:25:56;;;;;;;4.58;1.40;;;;;;;26.95;30.58;99740.76;1635312;86;21479;-70
2021/09/15 11:28:23;;;;;;;2.85;1.47;;;;;;;27.06;30.74;99739.24;1643896;86;21145;-71
2021/09/15 11:31:00;;;;;;;16.55;3.47;;;;;;;27.18;31.33;99733.81;1618472;87;20936;-70
2021/09/15 11:33:35;;;;;;;2.83;1.52;;;;;;;27.27;30.67;99732.68;1643581;86;21001;-70
2021/09/15 11:36:10;;;;;;;3.62;1.45;;;;;;;27.28;30.92;99737.70;1634192;86;21076;-70
2021/09/15 11:38:41;;;;;;;9.05;2.08;;;;;;;27.22;29.63;99725.31;1641335;87;21497;-70
2021/09/15 11:41:12;;;;;;;6.67;2.08;;;;;;;26.90;29.67;99726.53;1629108;86;21089;-69
2021/09/15 11:43:45;;;;;;;2.95;1.45;;;;;;;26.76;30.29;99723.89;1630188;86;21050;-71
2021/09/15 11:46:16;;;;;;;5.25;1.85;;;;;;;26.80;30.86;99727.46;1630026;87;20963;-71
2021/09/15 11:48:44;;;;;;;1.75;1.10;;;;;;;26.98;30.71;99716.61;1626204;87;21013;-72
2021/09/15 11:51:18;;;;;;;4.97;1.70;;;;;;;27.13;30.70;99708.95;1626965;87;21570;-71